IVR weather

Inverell Airport
Inverell, New South Wales, Australia

Public forecast

Using degrees Celsius for public forecast. Weather courtesy of forecast.io.

Closest aviation weather report (METAR) to Inverell Airport

Closest report is Moree Airport, 71.7 nm (132.7 km) WNW. Retrieved 2019/12/06 02:06 UTC (42 minutes ago):

YMOR 060206Z AUTO 28015G25KT 9999 // NCD 37/M03 Q1008

Closest aviation forecast (TAF) to Inverell Airport

Closest forecast is Tamworth Airport, 73.4 nm (136.0 km) SSW. Retrieved 2019-12-06 00:36 UTC (2 hours ago):

TAF TAF YSTW 052255Z 0600/0618 28014KT CAVOK FM060900 22008KT CAVOK FM061400 15005KT CAVOK